Time;durP1;ratioP1;P1;durP2;ratioP2;P2;SDS_P1;SDS_P2;PMS_P1;PMS_P2;Temp;Humidity;BMP_temperature;BMP_pressure;BME280_temperature;BME280_humidity;BME280_pressure;Samples;Min_cycle;Max_cycle;Signal;HPM_P1;HPM_P2
2021/08/18 00:00:49;;;;;;;7.47;4.53;;;16.00;99.90;;;;;;5035017;28;20262;-69
2021/08/18 00:03:16;;;;;;;9.40;6.38;;;16.00;99.90;;;;;;5034826;28;20298;-69
2021/08/18 00:05:44;;;;;;;8.80;5.63;;;16.00;99.90;;;;;;5034543;28;20676;-69
2021/08/18 00:08:13;;;;;;;9.38;5.80;;;16.00;99.90;;;;;;5034843;28;20294;-69
2021/08/18 00:10:42;;;;;;;10.45;5.90;;;16.00;99.90;;;;;;5034542;28;20772;-69
2021/08/18 00:13:11;;;;;;;11.32;6.50;;;16.00;99.90;;;;;;5034802;28;20239;-69
2021/08/18 00:15:39;;;;;;;11.02;5.53;;;16.00;99.90;;;;;;5034357;28;20286;-70
2021/08/18 00:18:08;;;;;;;11.18;5.72;;;16.00;99.90;;;;;;5034668;28;20314;-69
2021/08/18 00:20:37;;;;;;;8.45;6.32;;;16.00;99.90;;;;;;5034416;28;20262;-69
2021/08/18 00:23:06;;;;;;;11.73;6.63;;;16.00;99.90;;;;;;5034562;28;20207;-69
2021/08/18 00:25:33;;;;;;;11.45;5.82;;;16.00;99.90;;;;;;5034249;28;20219;-69
2021/08/18 00:28:01;;;;;;;10.05;6.00;;;16.00;99.90;;;;;;5034514;28;20247;-69
2021/08/18 00:30:28;;;;;;;10.00;5.75;;;16.00;99.90;;;;;;5034262;28;20310;-69
2021/08/18 00:32:55;;;;;;;14.73;6.30;;;16.00;99.90;;;;;;5034098;28;20239;-69
2021/08/18 00:35:23;;;;;;;9.48;6.00;;;16.00;99.90;;;;;;5034119;28;20632;-69
2021/08/18 00:37:50;;;;;;;11.95;6.90;;;16.10;99.90;;;;;;5034069;28;20238;-69
2021/08/18 00:40:18;;;;;;;9.48;5.82;;;16.00;99.90;;;;;;5034151;28;20265;-69
2021/08/18 00:42:46;;;;;;;9.95;5.88;;;16.00;99.90;;;;;;5033976;28;20218;-69
2021/08/18 00:45:14;;;;;;;10.15;5.70;;;16.10;99.90;;;;;;5033765;28;20712;-69
2021/08/18 00:47:43;;;;;;;12.00;5.97;;;16.10;99.90;;;;;;5034103;28;20297;-69
2021/08/18 00:50:12;;;;;;;8.80;5.55;;;16.00;99.90;;;;;;5033768;28;20317;-69
2021/08/18 00:52:42;;;;;;;9.43;5.60;;;16.10;99.90;;;;;;5034070;28;20294;-69
2021/08/18 00:55:11;;;;;;;10.23;6.00;;;16.10;99.90;;;;;;5033631;28;20731;-69
2021/08/18 00:57:39;;;;;;;10.68;5.95;;;16.20;99.90;;;;;;5033879;28;20211;-69
2021/08/18 01:00:08;;;;;;;11.27;5.90;;;16.20;99.90;;;;;;5033829;28;20255;-69
2021/08/18 01:02:37;;;;;;;9.75;5.93;;;16.30;99.90;;;;;;5033960;28;20239;-69
2021/08/18 01:05:05;;;;;;;9.40;5.90;;;16.20;99.90;;;;;;5033420;28;20652;-69
2021/08/18 01:07:33;;;;;;;8.52;5.07;;;16.20;99.90;;;;;;5033774;28;20315;-69
2021/08/18 01:10:04;;;;;;;8.95;5.45;;;16.30;99.90;;;;;;5033716;28;20265;-69
2021/08/18 01:12:31;;;;;;;10.07;5.60;;;16.30;99.90;;;;;;5033879;28;20609;-69
2021/08/18 01:14:57;;;;;;;10.07;6.45;;;16.30;99.90;;;;;;5033513;28;20203;-69
2021/08/18 01:17:24;;;;;;;8.23;6.00;;;16.30;99.90;;;;;;5033422;28;20297;-69
2021/08/18 01:19:51;;;;;;;11.38;6.20;;;16.30;99.90;;;;;;5033417;28;20301;-69
2021/08/18 01:22:18;;;;;;;10.10;6.35;;;16.30;99.90;;;;;;5033736;28;20543;-69
2021/08/18 01:24:45;;;;;;;10.25;5.78;;;16.30;99.90;;;;;;5033404;28;20409;-70
2021/08/18 01:27:13;;;;;;;11.07;6.18;;;16.20;99.90;;;;;;5033539;28;20298;-69
2021/08/18 01:29:42;;;;;;;10.82;5.35;;;16.20;99.90;;;;;;5033416;28;20625;-69
2021/08/18 01:32:09;;;;;;;10.00;7.45;;;16.20;99.90;;;;;;5033586;28;20309;-69
2021/08/18 01:34:37;;;;;;;10.27;6.25;;;16.10;99.90;;;;;;5033556;28;20287;-69
2021/08/18 01:37:05;;;;;;;10.00;6.28;;;16.10;99.90;;;;;;5033361;28;20569;-69
2021/08/18 01:39:32;;;;;;;10.43;6.47;;;16.10;99.90;;;;;;5033294;28;20631;-69
2021/08/18 01:41:59;;;;;;;9.52;6.15;;;16.00;99.90;;;;;;5033434;28;20227;-69
2021/08/18 01:44:25;;;;;;;10.20;6.00;;;16.10;99.90;;;;;;5033396;28;20246;-69
2021/08/18 01:46:54;;;;;;;12.48;7.13;;;16.00;99.90;;;;;;5033036;28;20262;-69
2021/08/18 01:49:21;;;;;;;9.93;6.30;;;15.90;99.90;;;;;;5033325;28;20242;-69
2021/08/18 01:51:47;;;;;;;11.00;6.20;;;15.80;99.90;;;;;;5033348;28;20262;-69
2021/08/18 01:54:14;;;;;;;13.25;6.90;;;15.80;99.90;;;;;;5033316;28;20249;-69
2021/08/18 01:56:41;;;;;;;12.10;7.97;;;15.80;99.90;;;;;;5032800;28;20242;-69
2021/08/18 01:59:08;;;;;;;9.00;6.03;;;15.80;99.90;;;;;;5033075;28;20249;-69
2021/08/18 02:01:35;;;;;;;11.13;6.35;;;15.80;99.90;;;;;;5033268;28;20310;-69
2021/08/18 02:04:04;;;;;;;14.23;7.50;;;15.80;99.90;;;;;;5033135;28;20250;-69
2021/08/18 02:06:32;;;;;;;11.10;6.03;;;15.80;99.90;;;;;;5033019;28;20315;-69
2021/08/18 02:09:01;;;;;;;14.25;7.10;;;15.80;99.90;;;;;;5033299;28;20209;-69
2021/08/18 02:11:28;;;;;;;10.40;6.60;;;15.80;99.90;;;;;;5033203;28;20223;-69
2021/08/18 02:13:56;;;;;;;11.38;6.80;;;15.70;99.90;;;;;;5033131;28;20294;-69
2021/08/18 02:16:23;;;;;;;8.63;6.18;;;15.80;99.90;;;;;;5032603;28;20246;-69
2021/08/18 02:18:49;;;;;;;9.80;5.90;;;15.70;99.90;;;;;;5036277;28;20254;-69
2021/08/18 02:21:18;;;;;;;10.48;7.03;;;15.70;99.90;;;;;;5036862;28;20249;-69
2021/08/18 02:23:45;;;;;;;11.27;6.07;;;15.80;99.90;;;;;;5036821;28;20238;-69
2021/08/18 02:26:12;;;;;;;13.15;6.57;;;15.80;99.90;;;;;;5036554;28;20269;-69
2021/08/18 02:28:38;;;;;;;10.63;5.90;;;15.80;99.90;;;;;;5036782;28;20237;-69
2021/08/18 02:31:06;;;;;;;8.55;5.63;;;15.90;99.90;;;;;;5036664;28;20271;-70
2021/08/18 02:33:34;;;;;;;8.77;5.75;;;15.90;99.90;;;;;;5036627;28;20238;-69
2021/08/18 02:36:01;;;;;;;10.35;6.03;;;15.90;99.90;;;;;;5036347;28;20211;-69
2021/08/18 02:38:29;;;;;;;8.45;5.60;;;16.00;99.90;;;;;;5036361;28;20306;-69
2021/08/18 02:40:56;;;;;;;9.02;5.63;;;16.00;99.90;;;;;;5036227;28;20254;-69
2021/08/18 02:43:23;;;;;;;8.65;5.88;;;16.00;99.90;;;;;;5036470;28;20242;-69
2021/08/18 02:45:50;;;;;;;9.35;5.75;;;16.10;99.90;;;;;;5036060;28;20249;-69
2021/08/18 02:48:17;;;;;;;9.07;6.65;;;16.00;99.90;;;;;;5036347;28;20211;-69
2021/08/18 02:50:44;;;;;;;8.07;5.55;;;16.00;99.90;;;;;;5036239;28;20258;-69
2021/08/18 02:53:11;;;;;;;9.50;5.85;;;16.10;99.90;;;;;;5036387;28;20295;-69
2021/08/18 02:55:39;;;;;;;11.13;5.72;;;16.10;99.90;;;;;;5036084;28;20243;-70
2021/08/18 02:58:06;;;;;;;8.00;5.65;;;16.10;99.90;;;;;;5036253;28;20207;-69
2021/08/18 03:00:33;;;;;;;8.38;5.75;;;16.10;99.90;;;;;;5036017;28;20328;-69
2021/08/18 03:03:00;;;;;;;11.70;5.70;;;16.10;99.90;;;;;;5036169;28;20302;-69
2021/08/18 03:05:27;;;;;;;9.18;4.97;;;16.10;99.90;;;;;;5035746;28;20235;-69
2021/08/18 03:07:54;;;;;;;12.40;6.45;;;16.00;99.90;;;;;;5035732;28;20269;-69
2021/08/18 03:10:21;;;;;;;8.65;4.97;;;16.00;99.90;;;;;;5035850;28;20312;-69
2021/08/18 03:12:49;;;;;;;9.90;5.72;;;15.90;99.90;;;;;;5035994;28;20240;-69
2021/08/18 03:15:16;;;;;;;10.80;5.80;;;16.00;99.90;;;;;;5035410;28;20205;-69
2021/08/18 03:17:43;;;;;;;9.35;5.78;;;16.00;99.90;;;;;;5035703;28;20281;-69
2021/08/18 03:20:10;;;;;;;10.13;5.90;;;16.00;99.90;;;;;;5035470;28;20274;-69
2021/08/18 03:22:37;;;;;;;8.95;4.90;;;16.00;99.90;;;;;;5035581;28;20250;-69
2021/08/18 03:25:05;;;;;;;8.00;4.50;;;16.00;99.90;;;;;;5035520;28;20290;-69
2021/08/18 03:27:32;;;;;;;7.28;5.63;;;16.00;99.90;;;;;;5035571;28;20655;-69
2021/08/18 03:30:00;;;;;;;8.23;4.85;;;16.00;99.90;;;;;;5035450;28;20311;-69
2021/08/18 03:32:27;;;;;;;7.05;4.78;;;16.00;99.90;;;;;;5035300;28;20204;-69
2021/08/18 03:34:54;;;;;;;6.65;4.63;;;16.00;99.90;;;;;;5035311;28;20203;-69
2021/08/18 03:37:21;;;;;;;7.88;4.80;;;16.00;99.90;;;;;;5035481;28;20242;-69
2021/08/18 03:39:48;;;;;;;8.05;4.70;;;16.00;99.90;;;;;;5035346;28;20251;-69
2021/08/18 03:42:15;;;;;;;9.45;5.13;;;16.00;99.90;;;;;;5035284;28;20724;-69
2021/08/18 03:44:41;;;;;;;8.48;4.60;;;16.10;99.90;;;;;;5035290;28;20293;-69
2021/08/18 03:47:10;;;;;;;5.13;4.53;;;16.00;99.90;;;;;;5034984;28;20315;-69
2021/08/18 03:49:36;;;;;;;7.30;5.25;;;16.10;99.90;;;;;;5035238;28;20257;-69
2021/08/18 03:52:04;;;;;;;8.32;4.75;;;16.00;99.90;;;;;;5034885;28;20779;-69
2021/08/18 03:54:31;;;;;;;9.18;5.30;;;15.90;99.90;;;;;;5035157;28;20294;-69
2021/08/18 03:56:57;;;;;;;8.07;5.72;;;15.90;99.90;;;;;;5034923;28;20231;-69
2021/08/18 03:59:24;;;;;;;11.05;6.43;;;15.90;99.90;;;;;;5035014;28;20239;-69
2021/08/18 04:01:51;;;;;;;11.63;6.93;;;15.90;99.90;;;;;;5034664;28;20313;-69
2021/08/18 04:04:21;;;;;;;7.90;5.35;;;15.90;99.90;;;;;;5034987;28;20241;-69
2021/08/18 04:06:48;;;;;;;10.07;6.47;;;15.80;99.90;;;;;;5034692;28;20330;-69
2021/08/18 04:09:15;;;;;;;4.80;4.03;;;15.90;99.90;;;;;;5034857;28;20238;-69
2021/08/18 04:11:42;;;;;;;7.53;5.22;;;15.90;99.90;;;;;;5034827;28;20310;-69
2021/08/18 04:14:10;;;;;;;7.07;4.45;;;15.90;99.90;;;;;;5034638;28;20239;-69
2021/08/18 04:16:37;;;;;;;7.88;4.15;;;16.00;99.90;;;;;;5034364;28;20711;-69
2021/08/18 04:19:04;;;;;;;7.65;4.30;;;16.00;99.90;;;;;;5034485;28;20295;-69
2021/08/18 04:21:33;;;;;;;6.25;4.50;;;16.00;99.90;;;;;;5034302;28;20311;-69
2021/08/18 04:23:59;;;;;;;6.05;4.00;;;16.00;99.90;;;;;;5034624;28;20298;-69
2021/08/18 04:26:26;;;;;;;7.80;4.20;;;16.10;99.90;;;;;;5034053;28;20302;-69
2021/08/18 04:28:54;;;;;;;5.20;3.60;;;16.10;99.90;;;;;;5034479;28;20301;-69
2021/08/18 04:31:21;;;;;;;5.47;3.42;;;16.10;99.90;;;;;;5034469;28;20250;-69
2021/08/18 04:33:48;;;;;;;6.25;3.72;;;16.10;99.90;;;;;;5034421;28;20295;-70
2021/08/18 04:36:16;;;;;;;9.23;4.60;;;16.10;99.90;;;;;;5034191;28;20298;-70
2021/08/18 04:38:44;;;;;;;7.30;3.20;;;16.10;99.90;;;;;;5034347;28;20196;-70
2021/08/18 04:41:11;;;;;;;9.23;4.55;;;16.20;99.90;;;;;;5033690;28;20310;-69
2021/08/18 04:43:38;;;;;;;13.95;8.00;;;16.20;99.90;;;;;;5034424;28;20236;-69
2021/08/18 04:46:05;;;;;;;8.73;5.05;;;16.20;99.90;;;;;;5033875;28;20299;-69
2021/08/18 04:48:35;;;;;;;7.22;4.45;;;16.20;99.90;;;;;;5034093;28;20317;-69
2021/08/18 04:51:02;;;;;;;5.68;3.67;;;16.20;99.90;;;;;;5033988;28;20656;-69
2021/08/18 04:53:29;;;;;;;5.20;3.72;;;16.30;99.90;;;;;;5034131;28;20291;-69
2021/08/18 04:55:57;;;;;;;6.57;4.00;;;16.30;99.90;;;;;;5033622;28;20677;-69
2021/08/18 04:58:24;;;;;;;6.93;3.90;;;16.30;99.90;;;;;;5034087;28;20613;-70
2021/08/18 05:00:51;;;;;;;6.25;4.07;;;16.30;99.90;;;;;;5033971;28;20266;-70
2021/08/18 05:03:18;;;;;;;5.25;3.83;;;16.30;99.90;;;;;;5033794;28;20661;-69
2021/08/18 05:05:45;;;;;;;4.95;4.05;;;16.30;99.90;;;;;;5033587;28;20213;-70
2021/08/18 05:08:11;;;;;;;5.43;3.85;;;16.20;99.90;;;;;;5033710;28;20219;-70
2021/08/18 05:10:39;;;;;;;6.25;4.50;;;16.20;99.90;;;;;;5033822;28;20588;-69
2021/08/18 05:13:08;;;;;;;7.32;4.40;;;16.20;99.90;;;;;;5033795;28;20202;-69
2021/08/18 05:15:35;;;;;;;4.95;3.63;;;16.20;99.90;;;;;;5033469;28;20202;-70
2021/08/18 05:18:02;;;;;;;5.43;4.30;;;16.20;99.90;;;;;;5033706;28;20234;-70
2021/08/18 05:20:28;;;;;;;5.63;3.88;;;16.10;99.90;;;;;;5033633;28;20314;-69
2021/08/18 05:22:55;;;;;;;5.50;3.83;;;16.20;99.90;;;;;;5033346;28;20672;-69
2021/08/18 05:25:22;;;;;;;7.35;4.07;;;16.20;99.90;;;;;;5033478;28;20207;-70
2021/08/18 05:27:49;;;;;;;6.10;3.65;;;16.10;99.90;;;;;;5033420;28;20701;-69
2021/08/18 05:30:18;;;;;;;6.63;3.95;;;16.20;99.90;;;;;;5033248;28;20318;-69
2021/08/18 05:32:45;;;;;;;6.05;3.67;;;16.20;99.90;;;;;;5033591;28;20207;-69
2021/08/18 05:35:14;;;;;;;6.88;3.55;;;16.20;99.90;;;;;;5033353;28;20207;-69
2021/08/18 05:37:42;;;;;;;6.07;3.85;;;16.20;99.90;;;;;;5033451;28;20566;-69
2021/08/18 05:40:10;;;;;;;7.47;4.10;;;16.20;99.90;;;;;;5033359;28;20253;-69
2021/08/18 05:42:36;;;;;;;6.18;3.80;;;16.20;99.90;;;;;;5033540;28;20202;-69
2021/08/18 05:45:06;;;;;;;6.13;3.40;;;16.20;99.90;;;;;;5033272;28;20293;-69
2021/08/18 05:47:35;;;;;;;5.70;3.70;;;16.20;99.90;;;;;;5033311;28;20219;-69
2021/08/18 05:50:02;;;;;;;4.93;3.50;;;16.20;99.90;;;;;;5033285;28;20224;-69
2021/08/18 05:52:29;;;;;;;7.85;3.75;;;16.20;99.90;;;;;;5034577;28;20234;-69
2021/08/18 05:55:00;;;;;;;6.22;4.05;;;16.20;99.90;;;;;;5037150;28;20290;-70
2021/08/18 05:57:27;;;;;;;6.15;3.70;;;16.20;99.90;;;;;;5037418;28;20200;-69
2021/08/18 05:59:54;;;;;;;4.68;3.20;;;16.20;99.90;;;;;;5037209;28;20248;-69
2021/08/18 06:02:21;;;;;;;4.60;3.50;;;16.30;99.90;;;;;;5036960;28;20695;-69
2021/08/18 06:04:49;;;;;;;4.53;2.92;;;16.20;99.90;;;;;;5037061;28;20298;-69
2021/08/18 06:07:16;;;;;;;5.78;3.03;;;16.30;99.90;;;;;;5036894;28;20704;-69
2021/08/18 06:09:43;;;;;;;5.13;3.15;;;16.30;99.90;;;;;;5037052;28;20207;-69
2021/08/18 06:12:10;;;;;;;4.63;3.55;;;16.30;99.90;;;;;;5036870;28;20210;-69
2021/08/18 06:14:37;;;;;;;3.50;3.08;;;16.40;99.90;;;;;;5037067;28;20564;-69
2021/08/18 06:17:04;;;;;;;4.07;3.17;;;16.40;99.90;;;;;;5036427;28;20246;-69
2021/08/18 06:19:31;;;;;;;4.13;3.03;;;16.50;99.90;;;;;;5037340;28;20662;-69
2021/08/18 06:22:00;;;;;;;2.83;2.28;;;16.50;99.90;;;;;;5036893;28;20317;-69
2021/08/18 06:24:29;;;;;;;5.47;3.20;;;16.60;99.90;;;;;;5036848;28;20208;-69
2021/08/18 06:26:57;;;;;;;2.70;2.40;;;16.70;99.90;;;;;;5036985;28;20298;-69
2021/08/18 06:29:28;;;;;;;5.47;3.03;;;16.70;99.90;;;;;;5036650;28;20208;-70
2021/08/18 06:31:55;;;;;;;4.80;3.00;;;16.70;99.90;;;;;;5036745;28;20224;-70
2021/08/18 06:34:23;;;;;;;4.32;2.67;;;16.70;99.90;;;;;;5036692;28;20208;-69
2021/08/18 06:36:50;;;;;;;5.40;2.72;;;16.70;99.90;;;;;;5036472;28;20204;-69
2021/08/18 06:39:18;;;;;;;3.60;2.63;;;16.70;99.90;;;;;;5036465;28;20295;-70
2021/08/18 06:41:45;;;;;;;4.07;2.65;;;16.70;99.90;;;;;;5036557;28;20219;-69
2021/08/18 06:44:12;;;;;;;4.53;3.55;;;16.70;99.90;;;;;;5036240;28;20573;-70
2021/08/18 06:46:39;;;;;;;5.70;4.30;;;16.70;99.90;;;;;;5036112;28;20235;-69
2021/08/18 06:49:05;;;;;;;5.70;3.50;;;16.80;99.90;;;;;;5036372;28;20228;-69
2021/08/18 06:51:33;;;;;;;5.90;3.72;;;16.90;99.90;;;;;;5036089;28;20727;-69
2021/08/18 06:54:00;;;;;;;4.35;3.15;;;16.90;99.90;;;;;;5036202;28;20682;-69
2021/08/18 06:56:28;;;;;;;4.75;3.38;;;16.90;99.90;;;;;;5035872;28;20302;-70
2021/08/18 06:58:55;;;;;;;7.40;3.83;;;16.90;99.90;;;;;;5036255;28;20290;-69
2021/08/18 07:01:22;;;;;;;6.47;4.30;;;16.90;99.90;;;;;;5036143;28;20584;-69
2021/08/18 07:03:49;;;;;;;4.30;3.10;;;16.90;99.90;;;;;;5035452;28;20295;-69
2021/08/18 07:06:16;;;;;;;5.65;4.18;;;16.90;99.90;;;;;;5035829;28;20666;-70
2021/08/18 07:08:43;;;;;;;5.82;4.35;;;16.90;99.90;;;;;;5035943;28;20318;-69
2021/08/18 07:11:10;;;;;;;5.43;3.75;;;17.00;99.90;;;;;;5035816;28;20223;-69
2021/08/18 07:13:38;;;;;;;4.18;3.47;;;17.00;99.90;;;;;;5036007;28;20212;-69
2021/08/18 07:16:05;;;;;;;5.82;4.32;;;17.00;99.90;;;;;;5035590;28;20208;-70
2021/08/18 07:18:32;;;;;;;6.05;4.22;;;17.10;99.90;;;;;;5035838;28;20625;-69
2021/08/18 07:20:59;;;;;;;5.45;3.50;;;17.10;99.90;;;;;;5035833;28;20307;-69
2021/08/18 07:23:26;;;;;;;4.97;3.50;;;17.20;99.90;;;;;;5035831;28;20622;-69
2021/08/18 07:25:53;;;;;;;3.85;2.95;;;17.30;99.90;;;;;;5035520;28;20204;-69
2021/08/18 07:28:19;;;;;;;3.10;2.65;;;17.30;99.90;;;;;;5035653;28;20330;-69
2021/08/18 07:30:47;;;;;;;3.67;2.72;;;17.40;99.90;;;;;;5035669;28;20258;-69
2021/08/18 07:33:14;;;;;;;2.80;2.30;;;17.40;99.90;;;;;;5035672;28;20291;-69
2021/08/18 07:35:41;;;;;;;4.47;2.83;;;17.50;99.90;;;;;;5035318;28;20200;-69
2021/08/18 07:38:08;;;;;;;4.22;2.75;;;17.50;99.90;;;;;;5035437;28;20250;-69
2021/08/18 07:40:35;;;;;;;3.60;2.90;;;17.60;99.90;;;;;;5035717;28;20311;-69
2021/08/18 07:43:01;;;;;;;2.40;2.20;;;17.70;99.90;;;;;;5035435;28;20298;-69
2021/08/18 07:45:28;;;;;;;4.10;2.65;;;17.80;99.90;;;;;;5034995;28;20295;-69
2021/08/18 07:47:57;;;;;;;6.18;2.70;;;17.90;99.90;;;;;;5035305;28;20246;-69
2021/08/18 07:50:24;;;;;;;2.85;2.47;;;18.10;99.90;;;;;;5035164;28;20661;-69
2021/08/18 07:52:50;;;;;;;2.92;2.40;;;18.30;99.90;;;;;;5034939;28;20209;-69
2021/08/18 07:55:17;;;;;;;2.72;1.98;;;18.50;99.90;;;;;;5035035;28;20207;-69
2021/08/18 07:57:44;;;;;;;2.10;1.90;;;18.80;99.90;;;;;;5034915;28;20333;-69
2021/08/18 08:00:11;;;;;;;2.00;1.45;;;18.90;99.90;;;;;;5035046;28;20317;-69
2021/08/18 08:02:38;;;;;;;2.03;1.67;;;19.00;99.90;;;;;;5034813;28;20208;-69
2021/08/18 08:05:08;;;;;;;2.13;1.50;;;18.90;99.90;;;;;;5034755;28;20463;-69
2021/08/18 08:07:35;;;;;;;1.55;1.42;;;19.00;99.90;;;;;;5034782;28;20210;-69
2021/08/18 08:10:02;;;;;;;2.92;1.67;;;18.90;99.90;;;;;;5034700;28;20210;-70
2021/08/18 08:12:29;;;;;;;1.75;1.45;;;18.80;99.90;;;;;;5034878;28;20223;-69
2021/08/18 08:14:56;;;;;;;2.00;1.60;;;18.80;99.90;;;;;;5033661;28;20208;-69
2021/08/18 08:17:23;;;;;;;1.60;1.45;;;18.80;99.90;;;;;;5034544;28;20291;-69
2021/08/18 08:19:50;;;;;;;2.13;1.58;;;18.80;99.90;;;;;;5034540;28;20685;-69
2021/08/18 08:22:18;;;;;;;1.63;1.52;;;18.60;99.90;;;;;;5034706;28;20263;-70
2021/08/18 08:24:45;;;;;;;7.13;5.13;;;18.60;99.90;;;;;;5034261;28;20679;-71
2021/08/18 08:27:12;;;;;;;2.65;2.10;;;18.50;99.90;;;;;;5034572;28;20292;-69
2021/08/18 08:29:39;;;;;;;1.00;1.00;;;18.50;99.90;;;;;;5034667;28;20224;-69
2021/08/18 08:32:06;;;;;;;1.10;1.00;;;18.40;99.90;;;;;;5034479;28;20221;-69
2021/08/18 08:34:34;;;;;;;0.98;0.88;;;18.40;99.90;;;;;;5034090;28;20713;-70
2021/08/18 08:37:00;;;;;;;0.68;0.68;;;18.40;99.90;;;;;;5034268;28;20290;-69
2021/08/18 08:39:29;;;;;;;1.00;0.93;;;18.40;99.90;;;;;;5034350;28;20291;-69
2021/08/18 08:41:56;;;;;;;1.23;0.80;;;18.30;99.90;;;;;;5034419;28;20239;-69
2021/08/18 08:44:26;;;;;;;0.95;0.85;;;18.30;99.90;;;;;;5034368;28;20214;-69
2021/08/18 08:46:54;;;;;;;1.00;0.90;;;18.30;99.90;;;;;;5034066;28;20299;-69
2021/08/18 08:49:23;;;;;;;0.80;0.80;;;18.30;99.90;;;;;;5034108;28;20228;-69
2021/08/18 08:51:51;;;;;;;0.77;0.70;;;18.30;99.90;;;;;;5034080;28;20310;-69
2021/08/18 08:54:19;;;;;;;0.68;0.60;;;18.30;99.90;;;;;;5034474;28;20311;-69
2021/08/18 08:56:47;;;;;;;0.80;0.80;;;18.30;99.90;;;;;;5033900;28;20201;-69
2021/08/18 08:59:14;;;;;;;0.82;0.70;;;18.30;99.90;;;;;;5034013;28;20200;-69
2021/08/18 09:02:02;;;;;;;0.88;0.88;;;18.30;99.90;;;;;;5033671;28;20394;-69
2021/08/18 09:04:30;;;;;;;0.60;0.60;;;18.30;99.90;;;;;;5033954;28;20252;-69
2021/08/18 09:07:12;;;;;;;0.90;0.77;;;18.40;99.90;;;;;;5033731;28;20306;-69
2021/08/18 09:09:40;;;;;;;0.63;0.63;;;18.40;99.90;;;;;;5033723;28;20224;-69
2021/08/18 09:12:11;;;;;;;0.63;0.63;;;18.50;99.90;;;;;;5033449;28;20226;-70
2021/08/18 09:14:38;;;;;;;0.77;0.77;;;18.60;99.90;;;;;;5033808;28;20211;-69
2021/08/18 09:17:28;;;;;;;0.50;0.50;;;18.70;99.90;;;;;;5033448;28;20217;-69
2021/08/18 09:20:00;;;;;;;0.55;0.55;;;18.70;99.90;;;;;;5033716;28;20435;-70
2021/08/18 09:22:27;;;;;;;0.60;0.60;;;18.70;99.90;;;;;;5033450;28;20280;-69
2021/08/18 09:25:13;;;;;;;0.70;0.70;;;18.70;99.90;;;;;;5033552;28;20209;-70
2021/08/18 09:27:42;;;;;;;0.80;0.68;;;18.50;99.90;;;;;;5033411;28;20299;-69
2021/08/18 09:30:17;;;;;;;0.73;0.70;;;18.50;99.90;;;;;;5033448;28;20227;-69
2021/08/18 09:32:44;;;;;;;0.80;0.80;;;18.50;99.90;;;;;;5033453;28;20188;-69
2021/08/18 09:35:13;;;;;;;0.85;0.80;;;18.50;99.90;;;;;;5033392;28;20208;-70
2021/08/18 09:37:42;;;;;;;0.75;0.73;;;18.40;99.90;;;;;;5033317;28;20308;-69
2021/08/18 09:40:17;;;;;;;0.73;0.73;;;18.50;99.90;;;;;;5033443;28;20653;-69
2021/08/18 09:42:46;;;;;;;0.60;0.60;;;18.40;99.90;;;;;;5033551;28;20610;-69
2021/08/18 09:45:16;;;;;;;0.50;0.50;;;18.30;99.90;;;;;;5033224;28;20216;-69
2021/08/18 09:47:54;;;;;;;1.20;1.10;;;18.30;99.90;;;;;;5033435;28;20283;-69
2021/08/18 09:50:22;;;;;;;0.40;0.40;;;18.30;99.90;;;;;;5033310;28;20228;-70
2021/08/18 09:52:50;;;;;;;0.65;0.50;;;18.30;99.90;;;;;;5033129;28;20211;-70
2021/08/18 09:55:22;;;;;;;1.70;0.80;;;18.40;99.90;;;;;;5033127;28;20202;-69
2021/08/18 09:57:50;;;;;;;0.77;0.70;;;18.50;99.90;;;;;;5033341;28;20205;-70
2021/08/18 10:00:18;;;;;;;0.88;0.65;;;18.80;99.90;;;;;;5033268;28;20221;-69
2021/08/18 10:02:45;;;;;;;0.50;0.50;;;18.90;99.90;;;;;;5033306;28;20292;-69
2021/08/18 10:05:13;;;;;;;0.50;0.40;;;19.20;99.90;;;;;;5033153;28;20878;-69
2021/08/18 10:07:40;;;;;;;0.50;0.50;;;19.40;99.90;;;;;;5033231;28;20444;-69
2021/08/18 10:10:08;;;;;;;0.60;0.57;;;19.50;99.90;;;;;;5033057;28;20855;-70
2021/08/18 10:12:35;;;;;;;0.63;0.63;;;19.70;99.90;;;;;;5033233;28;20459;-70
2021/08/18 10:15:05;;;;;;;0.60;0.60;;;19.80;99.90;;;;;;5032733;28;20540;-70
2021/08/18 10:17:39;;;;;;;1.07;0.60;;;20.00;99.90;;;;;;5032990;28;20825;-69
2021/08/18 10:20:08;;;;;;;0.50;0.50;;;20.10;99.90;;;;;;5033094;28;20547;-70
2021/08/18 10:22:35;;;;;;;0.40;0.40;;;20.10;99.90;;;;;;5032938;28;20962;-70
2021/08/18 10:25:46;;;;;;;0.60;0.50;;;20.30;99.90;;;;;;5032872;28;20450;-70
2021/08/18 10:28:15;;;;;;;0.63;0.63;;;20.20;99.90;;;;;;4991881;28;20450;-69
2021/08/18 10:30:49;;;;;;;0.63;0.63;;;20.10;99.90;;;;;;5023552;28;20511;-70
2021/08/18 10:33:53;;;;;;;0.50;0.50;;;19.90;99.90;;;;;;5033074;28;20433;-70
2021/08/18 10:36:55;;;;;;;0.60;0.60;;;19.50;99.90;;;;;;5032822;28;20460;-70
2021/08/18 10:39:30;;;;;;;0.60;0.50;;;19.30;99.90;;;;;;5035432;28;20244;-69
2021/08/18 10:42:01;;;;;;;0.65;0.65;;;19.20;99.90;;;;;;5036624;28;20575;-70
2021/08/18 10:44:39;;;;;;;0.90;0.90;;;19.10;99.90;;;;;;5036386;28;20666;-69
2021/08/18 10:47:20;;;;;;;1.02;1.00;;;18.80;99.90;;;;;;5036465;28;20290;-70
2021/08/18 10:49:48;;;;;;;1.10;1.00;;;18.70;99.90;;;;;;5036325;28;20263;-69
2021/08/18 10:52:54;;;;;;;0.88;0.88;;;18.70;99.90;;;;;;5036418;28;20287;-69
2021/08/18 10:55:30;;;;;;;1.20;1.10;;;18.60;99.90;;;;;;5035957;28;20205;-70
2021/08/18 10:57:58;;;;;;;2.00;1.30;;;18.80;99.90;;;;;;5036315;28;20209;-70
2021/08/18 11:00:34;;;;;;;0.90;0.90;;;19.80;99.90;;;;;;5036092;28;21056;-70
2021/08/18 11:03:04;;;;;;;1.07;0.93;;;22.00;99.90;;;;;;5036210;28;20532;-70
2021/08/18 11:05:48;;;;;;;1.87;1.30;;;22.80;99.90;;;;;;5036037;28;20534;-70
2021/08/18 11:08:17;;;;;;;1.33;1.20;;;22.20;99.90;;;;;;5035385;28;21000;-70
2021/08/18 11:11:11;;;;;;;1.30;1.20;;;21.50;99.90;;;;;;5035923;28;20486;-70
2021/08/18 11:13:41;;;;;;;1.10;1.00;;;21.30;99.90;;;;;;5035886;28;20488;-70
2021/08/18 11:16:09;;;;;;;1.00;1.00;;;21.30;99.90;;;;;;5035482;28;20458;-70
2021/08/18 11:18:45;;;;;;;1.43;1.30;;;20.90;99.90;;;;;;5035972;28;20552;-70
2021/08/18 11:21:16;;;;;;;1.47;1.37;;;20.80;99.90;;;;;;5035711;28;20878;-70
2021/08/18 11:23:50;;;;;;;1.50;1.40;;;20.30;99.90;;;;;;5035667;28;20437;-69
2021/08/18 11:26:20;;;;;;;1.60;1.40;;;20.00;99.90;;;;;;5035478;28;20450;-69
2021/08/18 11:28:54;;;;;;;0.93;0.93;;;19.60;99.90;;;;;;5035971;28;20907;-69
2021/08/18 11:31:45;;;;;;;1.45;1.35;;;19.50;99.90;;;;;;5035446;28;20460;-69
2021/08/18 11:34:22;;;;;;;1.40;1.30;;;19.40;99.90;;;;;;5034334;28;20545;-69
2021/08/18 11:36:50;;;;;;;1.38;1.25;;;19.20;99.90;;;;;;5035471;28;20207;-69
2021/08/18 11:39:18;;;;;;;2.05;1.63;;;19.00;99.90;;;;;;5035541;28;20196;-69
2021/08/18 11:41:46;;;;;;;1.73;1.52;;;19.00;99.90;;;;;;5035177;28;20224;-69
2021/08/18 11:44:25;;;;;;;1.53;1.43;;;18.90;99.90;;;;;;5035327;28;20209;-69
2021/08/18 11:46:52;;;;;;;1.17;1.10;;;19.10;99.90;;;;;;5035251;28;20451;-70
2021/08/18 11:49:25;;;;;;;1.60;1.50;;;19.30;99.90;;;;;;5034446;28;20563;-69
2021/08/18 11:51:52;;;;;;;1.50;1.40;;;19.90;99.90;;;;;;5035006;28;20541;-69
2021/08/18 11:54:22;;;;;;;1.50;1.40;;;20.40;99.90;;;;;;5035238;28;20544;-69
2021/08/18 11:56:59;;;;;;;1.77;1.47;;;20.80;99.90;;;;;;5035049;28;20442;-69
2021/08/18 11:59:25;;;;;;;1.23;1.13;;;21.20;99.90;;;;;;5035146;28;20455;-69
2021/08/18 12:01:52;;;;;;;1.50;1.40;;;21.40;99.90;;;;;;5035075;28;20581;-70
2021/08/18 12:04:22;;;;;;;1.43;1.40;;;21.30;99.90;;;;;;5035120;28;20457;-69
2021/08/18 12:07:07;;;;;;;1.50;1.40;;;21.30;99.90;;;;;;5035098;28;20448;-70
2021/08/18 12:09:34;;;;;;;1.53;1.43;;;21.00;99.90;;;;;;5034948;28;20481;-69
2021/08/18 12:12:06;;;;;;;1.53;1.43;;;20.80;99.90;;;;;;5034893;28;20831;-70
2021/08/18 12:14:38;;;;;;;1.40;1.30;;;20.70;99.90;;;;;;5034890;28;20457;-69
2021/08/18 12:17:06;;;;;;;1.50;1.33;;;20.70;99.90;;;;;;5034388;28;20564;-69
2021/08/18 12:19:38;;;;;;;1.63;1.50;;;20.60;99.90;;;;;;5034770;28;20860;-69
2021/08/18 12:22:12;;;;;;;1.50;1.40;;;20.70;99.90;;;;;;5034715;28;20553;-70
2021/08/18 12:24:40;;;;;;;1.23;1.13;;;20.70;99.90;;;;;;5034720;28;20459;-69
2021/08/18 12:27:08;;;;;;;1.80;1.70;;;20.70;99.90;;;;;;5034346;28;20454;-70
2021/08/18 12:29:37;;;;;;;1.97;1.60;;;20.60;99.90;;;;;;5034499;28;20492;-69
2021/08/18 12:32:06;;;;;;;1.63;1.53;;;20.50;99.90;;;;;;5034436;28;20483;-69
2021/08/18 12:34:41;;;;;;;1.40;1.30;;;20.30;99.90;;;;;;5034479;28;20544;-69
2021/08/18 12:37:15;;;;;;;1.83;1.43;;;20.30;99.90;;;;;;5034336;28;20494;-70
2021/08/18 12:39:45;;;;;;;6.57;5.60;;;20.30;99.90;;;;;;5034328;28;20521;-69
2021/08/18 12:42:22;;;;;;;1.40;1.30;;;20.50;99.90;;;;;;5034419;28;20450;-69
2021/08/18 12:44:59;;;;;;;1.20;1.10;;;20.60;99.90;;;;;;5034094;28;20440;-70
2021/08/18 12:47:30;;;;;;;1.20;1.10;;;20.60;99.90;;;;;;5034280;28;20449;-70
2021/08/18 12:49:59;;;;;;;0.90;0.90;;;20.90;99.90;;;;;;5033973;28;20484;-69
2021/08/18 12:52:27;;;;;;;0.63;0.63;;;21.00;99.90;;;;;;5034244;28;20451;-69
2021/08/18 12:54:55;;;;;;;0.67;0.67;;;21.20;99.90;;;;;;5033939;28;20504;-69